Impacts TAF Board
For situational awareness. Not to be used for flight planning purposes.
IDs:

KASE - Aspen/Pitkin Cnty, CO, US

Issued at 1122 UTC 15 Jul 2020
Updated at 1304 UTC 15 Jul 2020
Potential Impact None Slight Moderate High
Time1253Z 15/14Z 15/15Z 15/16Z 15/17Z 15/18Z 15/19Z 15/20Z 15/21Z 15/22Z 15/23Z 16/00Z 16/01Z 16/02Z>>
Type OBS PRVL PRVL PRVL PRVL PRVL PRVL PRVL PRVL PRVL PRVL PRVL PRVL PRVL
VIS 10 >6 >6 >6 >6 >6 >6 >6 >6 >6 >6 >6 >6 >6
CIG -- -- -- -- -- -- -- -- -- -- -- -- -- --
Cover CLR FEW FEW FEW FEW SCT SCT SCT SCT SCT SCT SCT SCT SCT
FltCat VFR VFR VFR VFR VFR VFR VFR VFR VFR VFR VFR VFR VFR VFR
WX -- VCSH VCSH VCSH VCSH -- -- -- VCTS VCTS VCTS VCTS VCTS --
WDir 200 VRB VRB VRB VRB 350 350 350 320 320 320 320 320 210
WSpd 5 3 3 3 3 8 8 8 8 8 8 8 8 6
WGst -- -- -- -- -- -- -- -- -- -- -- -- -- --
Raw TAF
KASE 151122Z 1512/1612 VRB03KT P6SM VCSH FEW110
  FM151800 35008KT P6SM SCT250
  FM152100 32008KT P6SM VCTS FEW090CB SCT100
  FM160200 21006KT P6SM FEW090 SCT250


Raw METAR
KASE 151253Z 20005KT 10SM CLR 09/06 A3033 RMK AO2 SLP156 T00940056
KASE 151153Z AUTO 19005KT 10SM CLR 09/05 A3033 RMK AO2 SLP156 60000 70004 T00940050 10156 20083 53012
KASE 151053Z AUTO 00000KT 10SM CLR 09/06 A3031 RMK AO2 SLP152 T00890061

METAR Board
Radar Display
Forecast Discussion
For situational awareness. Not to be used for flight planning purposes.